sensor_id;sensor_type;location;lat;lon;timestamp;P1;durP1;ratioP1;P2;durP2;ratioP2
20734;SDS011;10528;52.124;5.196;2023-04-01T00:02:25;16.63;;;7.10;;
20734;SDS011;10528;52.124;5.196;2023-04-01T00:04:53;21.45;;;7.45;;
20734;SDS011;10528;52.124;5.196;2023-04-01T00:07:19;17.80;;;7.00;;
20734;SDS011;10528;52.124;5.196;2023-04-01T00:09:47;16.30;;;8.25;;
20734;SDS011;10528;52.124;5.196;2023-04-01T00:12:14;15.85;;;7.43;;
20734;SDS011;10528;52.124;5.196;2023-04-01T00:14:40;15.65;;;8.23;;
20734;SDS011;10528;52.124;5.196;2023-04-01T00:17:07;16.13;;;6.97;;
20734;SDS011;10528;52.124;5.196;2023-04-01T00:19:34;17.20;;;7.30;;
20734;SDS011;10528;52.124;5.196;2023-04-01T00:22:01;16.58;;;8.73;;
20734;SDS011;10528;52.124;5.196;2023-04-01T00:24:28;22.52;;;8.90;;
20734;SDS011;10528;52.124;5.196;2023-04-01T00:26:55;23.98;;;8.75;;
20734;SDS011;10528;52.124;5.196;2023-04-01T00:29:22;18.60;;;8.27;;
20734;SDS011;10528;52.124;5.196;2023-04-01T00:31:50;16.40;;;8.40;;
20734;SDS011;10528;52.124;5.196;2023-04-01T00:34:17;16.98;;;8.75;;
20734;SDS011;10528;52.124;5.196;2023-04-01T00:36:44;16.90;;;8.48;;
20734;SDS011;10528;52.124;5.196;2023-04-01T00:39:11;20.40;;;9.10;;
20734;SDS011;10528;52.124;5.196;2023-04-01T00:41:37;15.80;;;8.75;;
20734;SDS011;10528;52.124;5.196;2023-04-01T00:44:24;17.23;;;8.30;;
20734;SDS011;10528;52.124;5.196;2023-04-01T00:46:57;16.85;;;9.75;;
20734;SDS011;10528;52.124;5.196;2023-04-01T00:49:25;18.35;;;8.55;;
20734;SDS011;10528;52.124;5.196;2023-04-01T00:51:58;13.98;;;8.70;;
20734;SDS011;10528;52.124;5.196;2023-04-01T00:54:29;19.05;;;9.52;;
20734;SDS011;10528;52.124;5.196;2023-04-01T00:56:58;18.45;;;9.27;;
20734;SDS011;10528;52.124;5.196;2023-04-01T00:59:35;14.25;;;8.52;;
20734;SDS011;10528;52.124;5.196;2023-04-01T01:02:10;17.00;;;9.77;;
20734;SDS011;10528;52.124;5.196;2023-04-01T01:04:39;16.67;;;8.93;;
20734;SDS011;10528;52.124;5.196;2023-04-01T01:15:41;13.57;;;7.38;;
20734;SDS011;10528;52.124;5.196;2023-04-01T01:24:21;10.15;;;5.82;;
20734;SDS011;10528;52.124;5.196;2023-04-01T01:27:10;14.45;;;6.55;;
20734;SDS011;10528;52.124;5.196;2023-04-01T01:29:44;9.65;;;5.07;;
20734;SDS011;10528;52.124;5.196;2023-04-01T01:32:44;9.43;;;4.82;;
20734;SDS011;10528;52.124;5.196;2023-04-01T01:35:43;8.95;;;4.57;;
20734;SDS011;10528;52.124;5.196;2023-04-01T01:38:19;9.93;;;4.90;;
20734;SDS011;10528;52.124;5.196;2023-04-01T01:41:00;9.38;;;4.40;;
20734;SDS011;10528;52.124;5.196;2023-04-01T01:43:38;8.13;;;4.25;;
20734;SDS011;10528;52.124;5.196;2023-04-01T01:46:13;9.13;;;4.45;;
20734;SDS011;10528;52.124;5.196;2023-04-01T01:48:45;9.48;;;4.15;;
20734;SDS011;10528;52.124;5.196;2023-04-01T01:51:14;8.98;;;4.38;;
20734;SDS011;10528;52.124;5.196;2023-04-01T01:53:42;6.22;;;3.53;;
20734;SDS011;10528;52.124;5.196;2023-04-01T01:56:10;9.23;;;3.72;;
20734;SDS011;10528;52.124;5.196;2023-04-01T01:58:43;7.22;;;3.53;;
20734;SDS011;10528;52.124;5.196;2023-04-01T02:01:23;9.40;;;3.60;;
20734;SDS011;10528;52.124;5.196;2023-04-01T02:03:57;8.50;;;4.40;;
20734;SDS011;10528;52.124;5.196;2023-04-01T02:06:27;8.60;;;4.38;;
20734;SDS011;10528;52.124;5.196;2023-04-01T02:09:01;8.45;;;3.90;;
20734;SDS011;10528;52.124;5.196;2023-04-01T02:14:17;7.03;;;3.80;;
20734;SDS011;10528;52.124;5.196;2023-04-01T02:16:57;5.85;;;3.50;;
20734;SDS011;10528;52.124;5.196;2023-04-01T02:19:36;5.50;;;3.33;;
20734;SDS011;10528;52.124;5.196;2023-04-01T02:22:14;8.48;;;3.60;;
20734;SDS011;10528;52.124;5.196;2023-04-01T02:24:50;8.18;;;3.80;;
20734;SDS011;10528;52.124;5.196;2023-04-01T02:27:23;9.38;;;3.72;;
20734;SDS011;10528;52.124;5.196;2023-04-01T02:29:51;6.72;;;3.75;;
20734;SDS011;10528;52.124;5.196;2023-04-01T02:32:19;9.15;;;4.30;;
20734;SDS011;10528;52.124;5.196;2023-04-01T02:34:47;9.20;;;4.20;;
20734;SDS011;10528;52.124;5.196;2023-04-01T02:37:14;9.85;;;4.15;;
20734;SDS011;10528;52.124;5.196;2023-04-01T02:39:42;8.02;;;3.60;;
20734;SDS011;10528;52.124;5.196;2023-04-01T02:42:09;7.50;;;4.00;;
20734;SDS011;10528;52.124;5.196;2023-04-01T02:44:36;7.32;;;3.13;;
20734;SDS011;10528;52.124;5.196;2023-04-01T02:47:03;7.50;;;3.65;;
20734;SDS011;10528;52.124;5.196;2023-04-01T02:49:30;6.20;;;3.30;;
20734;SDS011;10528;52.124;5.196;2023-04-01T02:51:57;7.57;;;4.28;;
20734;SDS011;10528;52.124;5.196;2023-04-01T02:54:24;7.03;;;3.40;;
20734;SDS011;10528;52.124;5.196;2023-04-01T02:56:51;8.10;;;3.90;;
20734;SDS011;10528;52.124;5.196;2023-04-01T02:59:18;6.50;;;3.50;;
20734;SDS011;10528;52.124;5.196;2023-04-01T03:01:45;6.47;;;3.75;;
20734;SDS011;10528;52.124;5.196;2023-04-01T03:04:12;6.80;;;4.07;;
20734;SDS011;10528;52.124;5.196;2023-04-01T03:06:39;7.72;;;4.25;;
20734;SDS011;10528;52.124;5.196;2023-04-01T03:09:05;6.93;;;4.28;;
20734;SDS011;10528;52.124;5.196;2023-04-01T03:11:33;6.13;;;4.07;;
20734;SDS011;10528;52.124;5.196;2023-04-01T03:13:59;8.75;;;5.28;;
20734;SDS011;10528;52.124;5.196;2023-04-01T03:16:26;7.25;;;5.20;;
20734;SDS011;10528;52.124;5.196;2023-04-01T03:18:53;9.00;;;5.50;;
20734;SDS011;10528;52.124;5.196;2023-04-01T03:21:23;9.38;;;5.22;;
20734;SDS011;10528;52.124;5.196;2023-04-01T03:23:51;7.05;;;5.30;;
20734;SDS011;10528;52.124;5.196;2023-04-01T03:26:18;8.77;;;5.65;;
20734;SDS011;10528;52.124;5.196;2023-04-01T03:28:46;7.72;;;5.57;;
20734;SDS011;10528;52.124;5.196;2023-04-01T03:31:13;9.23;;;6.00;;
20734;SDS011;10528;52.124;5.196;2023-04-01T03:33:48;9.63;;;6.22;;
20734;SDS011;10528;52.124;5.196;2023-04-01T03:36:15;8.80;;;5.85;;
20734;SDS011;10528;52.124;5.196;2023-04-01T03:38:43;7.10;;;5.43;;
20734;SDS011;10528;52.124;5.196;2023-04-01T03:41:15;8.05;;;5.47;;
20734;SDS011;10528;52.124;5.196;2023-04-01T03:43:43;6.78;;;4.90;;
20734;SDS011;10528;52.124;5.196;2023-04-01T03:46:11;8.02;;;5.60;;
20734;SDS011;10528;52.124;5.196;2023-04-01T03:48:42;7.70;;;5.93;;
20734;SDS011;10528;52.124;5.196;2023-04-01T03:51:09;8.13;;;5.32;;
20734;SDS011;10528;52.124;5.196;2023-04-01T03:53:36;7.53;;;5.72;;
20734;SDS011;10528;52.124;5.196;2023-04-01T03:56:05;7.93;;;5.68;;
20734;SDS011;10528;52.124;5.196;2023-04-01T03:58:35;8.38;;;5.82;;
20734;SDS011;10528;52.124;5.196;2023-04-01T04:01:14;8.05;;;5.82;;
20734;SDS011;10528;52.124;5.196;2023-04-01T04:03:51;10.68;;;6.95;;
20734;SDS011;10528;52.124;5.196;2023-04-01T04:06:20;9.57;;;7.03;;
20734;SDS011;10528;52.124;5.196;2023-04-01T04:08:47;8.90;;;6.43;;
20734;SDS011;10528;52.124;5.196;2023-04-01T04:11:15;10.73;;;7.15;;
20734;SDS011;10528;52.124;5.196;2023-04-01T04:13:42;11.02;;;6.93;;
20734;SDS011;10528;52.124;5.196;2023-04-01T04:16:09;11.75;;;7.20;;
20734;SDS011;10528;52.124;5.196;2023-04-01T04:18:42;8.85;;;6.07;;
20734;SDS011;10528;52.124;5.196;2023-04-01T04:21:12;9.25;;;5.88;;
20734;SDS011;10528;52.124;5.196;2023-04-01T04:23:41;8.32;;;5.25;;
20734;SDS011;10528;52.124;5.196;2023-04-01T04:26:11;9.07;;;5.22;;
20734;SDS011;10528;52.124;5.196;2023-04-01T04:28:43;6.22;;;4.40;;
20734;SDS011;10528;52.124;5.196;2023-04-01T04:31:11;6.75;;;4.38;;
20734;SDS011;10528;52.124;5.196;2023-04-01T04:33:43;7.70;;;4.53;;
20734;SDS011;10528;52.124;5.196;2023-04-01T04:36:11;6.20;;;3.83;;
20734;SDS011;10528;52.124;5.196;2023-04-01T04:38:37;6.15;;;4.13;;
20734;SDS011;10528;52.124;5.196;2023-04-01T04:41:11;6.47;;;4.50;;
20734;SDS011;10528;52.124;5.196;2023-04-01T04:43:48;6.60;;;4.20;;
20734;SDS011;10528;52.124;5.196;2023-04-01T04:46:22;6.63;;;4.07;;
20734;SDS011;10528;52.124;5.196;2023-04-01T04:48:54;7.07;;;4.75;;
20734;SDS011;10528;52.124;5.196;2023-04-01T04:51:22;6.68;;;4.80;;
20734;SDS011;10528;52.124;5.196;2023-04-01T04:53:50;7.07;;;4.95;;
20734;SDS011;10528;52.124;5.196;2023-04-01T04:56:21;7.13;;;4.88;;
20734;SDS011;10528;52.124;5.196;2023-04-01T04:59:05;7.50;;;4.93;;
20734;SDS011;10528;52.124;5.196;2023-04-01T05:01:48;6.78;;;4.93;;
20734;SDS011;10528;52.124;5.196;2023-04-01T05:04:15;7.55;;;5.13;;
20734;SDS011;10528;52.124;5.196;2023-04-01T05:06:42;8.50;;;5.00;;
20734;SDS011;10528;52.124;5.196;2023-04-01T05:09:11;7.20;;;5.07;;
20734;SDS011;10528;52.124;5.196;2023-04-01T05:11:38;8.50;;;5.38;;
20734;SDS011;10528;52.124;5.196;2023-04-01T05:14:06;8.00;;;5.82;;
20734;SDS011;10528;52.124;5.196;2023-04-01T05:16:39;7.07;;;4.95;;
20734;SDS011;10528;52.124;5.196;2023-04-01T05:19:06;8.50;;;6.10;;
20734;SDS011;10528;52.124;5.196;2023-04-01T05:21:33;8.65;;;5.95;;
20734;SDS011;10528;52.124;5.196;2023-04-01T05:24:00;8.80;;;6.35;;
20734;SDS011;10528;52.124;5.196;2023-04-01T05:26:28;7.90;;;6.10;;
20734;SDS011;10528;52.124;5.196;2023-04-01T05:28:55;9.95;;;6.35;;
20734;SDS011;10528;52.124;5.196;2023-04-01T05:31:22;9.20;;;6.30;;
20734;SDS011;10528;52.124;5.196;2023-04-01T05:33:50;9.63;;;6.55;;
20734;SDS011;10528;52.124;5.196;2023-04-01T05:36:17;9.07;;;6.55;;
20734;SDS011;10528;52.124;5.196;2023-04-01T05:38:44;8.23;;;6.00;;
20734;SDS011;10528;52.124;5.196;2023-04-01T05:41:13;9.82;;;6.70;;
20734;SDS011;10528;52.124;5.196;2023-04-01T05:43:44;8.63;;;6.47;;
20734;SDS011;10528;52.124;5.196;2023-04-01T05:46:30;9.18;;;6.68;;
20734;SDS011;10528;52.124;5.196;2023-04-01T05:49:07;8.52;;;6.30;;
20734;SDS011;10528;52.124;5.196;2023-04-01T05:51:34;8.80;;;6.70;;
20734;SDS011;10528;52.124;5.196;2023-04-01T05:54:01;9.75;;;7.07;;
20734;SDS011;10528;52.124;5.196;2023-04-01T05:56:31;10.68;;;6.78;;
20734;SDS011;10528;52.124;5.196;2023-04-01T05:58:58;10.98;;;8.02;;
20734;SDS011;10528;52.124;5.196;2023-04-01T06:01:26;10.80;;;7.78;;
20734;SDS011;10528;52.124;5.196;2023-04-01T06:03:53;10.95;;;8.00;;
20734;SDS011;10528;52.124;5.196;2023-04-01T06:06:23;10.23;;;7.78;;
20734;SDS011;10528;52.124;5.196;2023-04-01T06:08:58;9.80;;;7.15;;
20734;SDS011;10528;52.124;5.196;2023-04-01T06:23:23;11.45;;;7.93;;
20734;SDS011;10528;52.124;5.196;2023-04-01T06:26:30;11.95;;;8.98;;
20734;SDS011;10528;52.124;5.196;2023-04-01T06:32:40;10.85;;;7.82;;
20734;SDS011;10528;52.124;5.196;2023-04-01T06:40:59;11.30;;;7.03;;
20734;SDS011;10528;52.124;5.196;2023-04-01T06:47:41;7.35;;;5.55;;
20734;SDS011;10528;52.124;5.196;2023-04-01T06:56:55;7.60;;;5.40;;
20734;SDS011;10528;52.124;5.196;2023-04-01T06:59:32;9.20;;;6.15;;
20734;SDS011;10528;52.124;5.196;2023-04-01T07:04:40;9.10;;;5.53;;
20734;SDS011;10528;52.124;5.196;2023-04-01T07:07:19;8.90;;;5.65;;
20734;SDS011;10528;52.124;5.196;2023-04-01T07:10:13;8.90;;;6.30;;
20734;SDS011;10528;52.124;5.196;2023-04-01T07:13:32;9.88;;;6.50;;
20734;SDS011;10528;52.124;5.196;2023-04-01T07:16:12;11.80;;;7.47;;
20734;SDS011;10528;52.124;5.196;2023-04-01T07:18:52;12.10;;;6.72;;
20734;SDS011;10528;52.124;5.196;2023-04-01T07:21:44;10.38;;;6.45;;
20734;SDS011;10528;52.124;5.196;2023-04-01T07:24:34;12.57;;;6.95;;
20734;SDS011;10528;52.124;5.196;2023-04-01T07:27:12;10.27;;;6.68;;
20734;SDS011;10528;52.124;5.196;2023-04-01T07:29:42;10.40;;;6.78;;
20734;SDS011;10528;52.124;5.196;2023-04-01T07:32:22;10.90;;;7.05;;
20734;SDS011;10528;52.124;5.196;2023-04-01T07:44:06;12.20;;;7.35;;
20734;SDS011;10528;52.124;5.196;2023-04-01T07:58:33;10.90;;;7.30;;
20734;SDS011;10528;52.124;5.196;2023-04-01T08:01:40;11.23;;;6.97;;
20734;SDS011;10528;52.124;5.196;2023-04-01T08:04:43;11.82;;;7.18;;
20734;SDS011;10528;52.124;5.196;2023-04-01T08:07:23;13.43;;;7.55;;
20734;SDS011;10528;52.124;5.196;2023-04-01T08:10:25;12.52;;;7.07;;
20734;SDS011;10528;52.124;5.196;2023-04-01T08:13:39;12.10;;;7.75;;
20734;SDS011;10528;52.124;5.196;2023-04-01T08:16:45;12.65;;;7.95;;
20734;SDS011;10528;52.124;5.196;2023-04-01T08:22:32;13.48;;;8.60;;
20734;SDS011;10528;52.124;5.196;2023-04-01T08:25:22;15.80;;;8.98;;
20734;SDS011;10528;52.124;5.196;2023-04-01T08:28:03;14.82;;;9.00;;
20734;SDS011;10528;52.124;5.196;2023-04-01T08:33:37;13.27;;;8.85;;
20734;SDS011;10528;52.124;5.196;2023-04-01T08:36:18;14.55;;;7.95;;
20734;SDS011;10528;52.124;5.196;2023-04-01T08:39:09;13.88;;;8.27;;
20734;SDS011;10528;52.124;5.196;2023-04-01T09:00:47;17.42;;;10.20;;
20734;SDS011;10528;52.124;5.196;2023-04-01T09:03:35;18.38;;;10.82;;
20734;SDS011;10528;52.124;5.196;2023-04-01T09:06:33;17.23;;;10.75;;
20734;SDS011;10528;52.124;5.196;2023-04-01T09:12:45;16.25;;;10.40;;
20734;SDS011;10528;52.124;5.196;2023-04-01T09:15:59;18.42;;;10.55;;
20734;SDS011;10528;52.124;5.196;2023-04-01T09:19:15;17.77;;;10.07;;
20734;SDS011;10528;52.124;5.196;2023-04-01T09:27:54;17.17;;;9.05;;
20734;SDS011;10528;52.124;5.196;2023-04-01T09:34:03;13.95;;;8.45;;
20734;SDS011;10528;52.124;5.196;2023-04-01T09:37:18;11.73;;;7.85;;
20734;SDS011;10528;52.124;5.196;2023-04-01T09:40:15;11.65;;;7.97;;
20734;SDS011;10528;52.124;5.196;2023-04-01T09:52:03;11.73;;;7.82;;
20734;SDS011;10528;52.124;5.196;2023-04-01T09:54:51;12.93;;;7.88;;
20734;SDS011;10528;52.124;5.196;2023-04-01T09:58:19;10.85;;;7.18;;
20734;SDS011;10528;52.124;5.196;2023-04-01T10:01:42;9.27;;;6.68;;
20734;SDS011;10528;52.124;5.196;2023-04-01T10:10:43;7.03;;;4.93;;
20734;SDS011;10528;52.124;5.196;2023-04-01T10:35:38;6.22;;;4.55;;
20734;SDS011;10528;52.124;5.196;2023-04-01T10:41:43;7.28;;;4.78;;
20734;SDS011;10528;52.124;5.196;2023-04-01T10:54:43;8.90;;;6.10;;
20734;SDS011;10528;52.124;5.196;2023-04-01T11:11:20;8.27;;;5.07;;
20734;SDS011;10528;52.124;5.196;2023-04-01T11:29:37;7.80;;;5.20;;
20734;SDS011;10528;52.124;5.196;2023-04-01T11:32:48;9.38;;;4.07;;
20734;SDS011;10528;52.124;5.196;2023-04-01T11:38:54;4.78;;;3.58;;
20734;SDS011;10528;52.124;5.196;2023-04-01T11:44:55;5.53;;;3.92;;
20734;SDS011;10528;52.124;5.196;2023-04-01T12:00:50;5.10;;;4.18;;
20734;SDS011;10528;52.124;5.196;2023-04-01T12:05:58;5.45;;;4.40;;
20734;SDS011;10528;52.124;5.196;2023-04-01T12:08:40;6.63;;;4.95;;
20734;SDS011;10528;52.124;5.196;2023-04-01T12:12:03;6.70;;;5.47;;
20734;SDS011;10528;52.124;5.196;2023-04-01T12:17:33;7.47;;;5.80;;
20734;SDS011;10528;52.124;5.196;2023-04-01T12:26:39;7.78;;;6.43;;
20734;SDS011;10528;52.124;5.196;2023-04-01T12:29:14;7.97;;;6.22;;
20734;SDS011;10528;52.124;5.196;2023-04-01T12:37:37;10.52;;;6.95;;
20734;SDS011;10528;52.124;5.196;2023-04-01T12:40:51;7.95;;;6.55;;
20734;SDS011;10528;52.124;5.196;2023-04-01T12:52:42;9.48;;;6.95;;
20734;SDS011;10528;52.124;5.196;2023-04-01T12:55:43;11.02;;;6.85;;
20734;SDS011;10528;52.124;5.196;2023-04-01T13:02:09;10.55;;;7.45;;
20734;SDS011;10528;52.124;5.196;2023-04-01T13:10:23;9.85;;;7.05;;
20734;SDS011;10528;52.124;5.196;2023-04-01T13:13:26;8.77;;;6.35;;
20734;SDS011;10528;52.124;5.196;2023-04-01T13:16:14;9.05;;;6.53;;
20734;SDS011;10528;52.124;5.196;2023-04-01T13:27:18;9.18;;;6.22;;
20734;SDS011;10528;52.124;5.196;2023-04-01T13:36:28;8.95;;;5.18;;
20734;SDS011;10528;52.124;5.196;2023-04-01T13:39:39;6.43;;;5.10;;
20734;SDS011;10528;52.124;5.196;2023-04-01T13:45:29;4.35;;;3.45;;
20734;SDS011;10528;52.124;5.196;2023-04-01T13:54:14;3.80;;;3.05;;
20734;SDS011;10528;52.124;5.196;2023-04-01T13:57:24;4.45;;;3.20;;
20734;SDS011;10528;52.124;5.196;2023-04-01T14:14:58;4.78;;;3.50;;
20734;SDS011;10528;52.124;5.196;2023-04-01T14:24:08;5.78;;;4.55;;
20734;SDS011;10528;52.124;5.196;2023-04-01T14:32:57;6.28;;;5.00;;
20734;SDS011;10528;52.124;5.196;2023-04-01T14:36:10;6.60;;;4.70;;
20734;SDS011;10528;52.124;5.196;2023-04-01T14:45:02;7.25;;;5.38;;
20734;SDS011;10528;52.124;5.196;2023-04-01T14:48:15;7.40;;;5.47;;
20734;SDS011;10528;52.124;5.196;2023-04-01T14:50:57;6.40;;;5.30;;
20734;SDS011;10528;52.124;5.196;2023-04-01T14:56:51;6.63;;;5.25;;
20734;SDS011;10528;52.124;5.196;2023-04-01T14:59:46;7.45;;;5.30;;
20734;SDS011;10528;52.124;5.196;2023-04-01T15:11:24;6.65;;;4.80;;
20734;SDS011;10528;52.124;5.196;2023-04-01T15:14:35;6.30;;;5.20;;
20734;SDS011;10528;52.124;5.196;2023-04-01T15:26:40;6.47;;;4.80;;
20734;SDS011;10528;52.124;5.196;2023-04-01T15:32:54;4.70;;;4.07;;
20734;SDS011;10528;52.124;5.196;2023-04-01T15:41:39;4.22;;;3.47;;
20734;SDS011;10528;52.124;5.196;2023-04-01T15:49:50;5.63;;;3.70;;
20734;SDS011;10528;52.124;5.196;2023-04-01T15:56:18;5.85;;;3.88;;
20734;SDS011;10528;52.124;5.196;2023-04-01T16:01:45;4.85;;;3.88;;
20734;SDS011;10528;52.124;5.196;2023-04-01T16:10:28;3.80;;;3.10;;
20734;SDS011;10528;52.124;5.196;2023-04-01T16:13:24;3.85;;;3.08;;
20734;SDS011;10528;52.124;5.196;2023-04-01T16:16:17;5.03;;;3.20;;
20734;SDS011;10528;52.124;5.196;2023-04-01T16:22:02;4.35;;;2.80;;
20734;SDS011;10528;52.124;5.196;2023-04-01T16:30:26;3.00;;;2.40;;
20734;SDS011;10528;52.124;5.196;2023-04-01T16:33:05;3.83;;;3.10;;
20734;SDS011;10528;52.124;5.196;2023-04-01T16:36:08;2.67;;;2.30;;
20734;SDS011;10528;52.124;5.196;2023-04-01T16:39:08;3.03;;;2.22;;
20734;SDS011;10528;52.124;5.196;2023-04-01T16:41:53;3.13;;;2.30;;
20734;SDS011;10528;52.124;5.196;2023-04-01T16:47:50;2.20;;;1.70;;
20734;SDS011;10528;52.124;5.196;2023-04-01T16:50:25;2.53;;;1.80;;
20734;SDS011;10528;52.124;5.196;2023-04-01T16:53:09;2.10;;;1.75;;
20734;SDS011;10528;52.124;5.196;2023-04-01T17:01:02;2.70;;;2.20;;
20734;SDS011;10528;52.124;5.196;2023-04-01T17:03:57;2.70;;;2.30;;
20734;SDS011;10528;52.124;5.196;2023-04-01T17:06:39;3.20;;;2.60;;
20734;SDS011;10528;52.124;5.196;2023-04-01T17:09:41;3.05;;;2.75;;
20734;SDS011;10528;52.124;5.196;2023-04-01T17:21:38;4.05;;;3.20;;
20734;SDS011;10528;52.124;5.196;2023-04-01T17:27:03;4.40;;;3.35;;
20734;SDS011;10528;52.124;5.196;2023-04-01T17:30:05;3.90;;;3.40;;
20734;SDS011;10528;52.124;5.196;2023-04-01T17:33:04;3.70;;;3.20;;
20734;SDS011;10528;52.124;5.196;2023-04-01T17:38:56;9.60;;;3.65;;
20734;SDS011;10528;52.124;5.196;2023-04-01T17:41:41;5.15;;;3.47;;
20734;SDS011;10528;52.124;5.196;2023-04-01T17:44:21;3.25;;;2.90;;
20734;SDS011;10528;52.124;5.196;2023-04-01T17:53:09;2.85;;;2.42;;
20734;SDS011;10528;52.124;5.196;2023-04-01T17:56:08;3.00;;;2.70;;
20734;SDS011;10528;52.124;5.196;2023-04-01T18:02:01;4.20;;;3.28;;
20734;SDS011;10528;52.124;5.196;2023-04-01T18:07:36;4.70;;;3.60;;
20734;SDS011;10528;52.124;5.196;2023-04-01T18:15:40;5.68;;;3.80;;
20734;SDS011;10528;52.124;5.196;2023-04-01T18:18:38;4.03;;;3.50;;
20734;SDS011;10528;52.124;5.196;2023-04-01T18:21:45;3.88;;;3.45;;
20734;SDS011;10528;52.124;5.196;2023-04-01T18:30:44;5.25;;;3.88;;
20734;SDS011;10528;52.124;5.196;2023-04-01T18:33:36;5.40;;;3.97;;
20734;SDS011;10528;52.124;5.196;2023-04-01T18:36:26;4.78;;;4.00;;
20734;SDS011;10528;52.124;5.196;2023-04-01T18:39:23;4.50;;;3.92;;
20734;SDS011;10528;52.124;5.196;2023-04-01T18:51:13;5.97;;;4.43;;
20734;SDS011;10528;52.124;5.196;2023-04-01T18:54:04;4.22;;;3.83;;
20734;SDS011;10528;52.124;5.196;2023-04-01T18:56:43;5.22;;;4.10;;
20734;SDS011;10528;52.124;5.196;2023-04-01T18:59:15;4.40;;;4.00;;
20734;SDS011;10528;52.124;5.196;2023-04-01T19:02:02;5.32;;;4.82;;
20734;SDS011;10528;52.124;5.196;2023-04-01T19:05:15;5.93;;;4.82;;
20734;SDS011;10528;52.124;5.196;2023-04-01T19:07:50;4.57;;;4.10;;
20734;SDS011;10528;52.124;5.196;2023-04-01T19:13:40;5.85;;;4.85;;
20734;SDS011;10528;52.124;5.196;2023-04-01T19:43:55;7.80;;;6.13;;
20734;SDS011;10528;52.124;5.196;2023-04-01T19:48:00;7.18;;;6.30;;
20734;SDS011;10528;52.124;5.196;2023-04-01T19:53:13;6.93;;;6.22;;
20734;SDS011;10528;52.124;5.196;2023-04-01T19:56:13;7.20;;;6.50;;
20734;SDS011;10528;52.124;5.196;2023-04-01T20:01:34;7.75;;;6.53;;
20734;SDS011;10528;52.124;5.196;2023-04-01T20:04:20;7.57;;;6.60;;
20734;SDS011;10528;52.124;5.196;2023-04-01T20:07:02;7.75;;;6.75;;
20734;SDS011;10528;52.124;5.196;2023-04-01T20:10:07;8.40;;;6.32;;
20734;SDS011;10528;52.124;5.196;2023-04-01T20:16:17;8.70;;;6.78;;
20734;SDS011;10528;52.124;5.196;2023-04-01T20:18:55;9.90;;;7.30;;
20734;SDS011;10528;52.124;5.196;2023-04-01T20:21:45;8.52;;;6.70;;
20734;SDS011;10528;52.124;5.196;2023-04-01T20:26:41;6.97;;;5.95;;
20734;SDS011;10528;52.124;5.196;2023-04-01T20:33:06;7.20;;;6.15;;
20734;SDS011;10528;52.124;5.196;2023-04-01T20:36:12;9.18;;;6.18;;
20734;SDS011;10528;52.124;5.196;2023-04-01T20:39:18;6.93;;;6.18;;
20734;SDS011;10528;52.124;5.196;2023-04-01T20:42:29;8.13;;;7.15;;
20734;SDS011;10528;52.124;5.196;2023-04-01T20:45:08;8.05;;;7.25;;
20734;SDS011;10528;52.124;5.196;2023-04-01T20:50:52;7.28;;;6.53;;
20734;SDS011;10528;52.124;5.196;2023-04-01T20:53:34;9.32;;;7.28;;
20734;SDS011;10528;52.124;5.196;2023-04-01T21:08:38;9.30;;;6.57;;
20734;SDS011;10528;52.124;5.196;2023-04-01T21:17:13;6.43;;;5.43;;
20734;SDS011;10528;52.124;5.196;2023-04-01T21:26:19;6.57;;;5.88;;
20734;SDS011;10528;52.124;5.196;2023-04-01T21:32:46;8.18;;;6.13;;
20734;SDS011;10528;52.124;5.196;2023-04-01T21:55:38;9.07;;;7.07;;
20734;SDS011;10528;52.124;5.196;2023-04-01T22:01:22;7.95;;;7.05;;
20734;SDS011;10528;52.124;5.196;2023-04-01T22:09:54;11.23;;;7.20;;
20734;SDS011;10528;52.124;5.196;2023-04-01T22:21:04;13.25;;;7.75;;
20734;SDS011;10528;52.124;5.196;2023-04-01T22:24:40;8.98;;;7.40;;
20734;SDS011;10528;52.124;5.196;2023-04-01T22:35:29;11.05;;;8.40;;
20734;SDS011;10528;52.124;5.196;2023-04-01T22:47:49;11.30;;;8.05;;
20734;SDS011;10528;52.124;5.196;2023-04-01T22:56:37;11.82;;;9.25;;
20734;SDS011;10528;52.124;5.196;2023-04-01T22:59:15;11.20;;;7.75;;
20734;SDS011;10528;52.124;5.196;2023-04-01T23:02:16;10.90;;;8.43;;
20734;SDS011;10528;52.124;5.196;2023-04-01T23:04:53;13.07;;;9.10;;
20734;SDS011;10528;52.124;5.196;2023-04-01T23:10:18;11.88;;;8.73;;
20734;SDS011;10528;52.124;5.196;2023-04-01T23:13:10;12.13;;;9.00;;
20734;SDS011;10528;52.124;5.196;2023-04-01T23:15:44;13.10;;;9.18;;
20734;SDS011;10528;52.124;5.196;2023-04-01T23:24:07;12.05;;;9.35;;
20734;SDS011;10528;52.124;5.196;2023-04-01T23:29:48;14.52;;;9.00;;
20734;SDS011;10528;52.124;5.196;2023-04-01T23:32:15;12.70;;;8.73;;
20734;SDS011;10528;52.124;5.196;2023-04-01T23:34:53;13.57;;;8.85;;
20734;SDS011;10528;52.124;5.196;2023-04-01T23:37:24;13.27;;;9.15;;
20734;SDS011;10528;52.124;5.196;2023-04-01T23:39:56;15.05;;;10.20;;
20734;SDS011;10528;52.124;5.196;2023-04-01T23:45:16;13.82;;;8.82;;
20734;SDS011;10528;52.124;5.196;2023-04-01T23:47:46;14.00;;;9.48;;
20734;SDS011;10528;52.124;5.196;2023-04-01T23:50:18;13.52;;;9.57;;
20734;SDS011;10528;52.124;5.196;2023-04-01T23:52:58;13.57;;;9.25;;
20734;SDS011;10528;52.124;5.196;2023-04-01T23:55:37;11.88;;;8.93;;
